Alix, Arkansas
Current Conditions -  °F | °C
As of 4:53 PM on Wednesday 26 Nov 2014 (Local Time) from KFSM Reporting Station
Clear Clear  
Wind Chill: 54°   Ceiling: Unl
Heat Index: 54°   Visibility: 10mi
Dew Point: 25°   Wind: 24mph
Humidity: 33%   Direction: 300°WNW
Pressure: 30.16"   Gusts: 35mph
Location:  35.43°N, 93.73°W
Report Text: KFSM 262253Z 30021G30KT 10SM CLR 12/M04 A3016 RMK AO2 PK WND 29030/2249 SLP215 T01221039
Loading
Personal Weather Stations






























Interactive Weather Map New forecast layout! Learn more

10-Day Weather Forecast

Advertisements
Track Severe Weather on mobile